Latest Weather Observations for Mount Hotham Airport

IDV60801

Issued at 3:31 am EDT Saturday 28 February 2015 (issued every 30 minutes, with the page automatically refreshed every 10 minutes)

About weather observations | Map of weather stations | Latest weather observations for VIC | Other Formats
Station Details ID: 083055 Name: MOUNT HOTHAM AIRPORT Lat: -37.05 Lon: 147.33 Height: 1295.4 m
Data from the previous 72 hours. | See also: Recent months at Mount Hotham Airport
Date/Time
EDT
Temp
°C
App
Temp
°C
Dew
Point
Rel
Hum
%
Delta-T
°C
Wind Press
QNH
hPa
Press
MSL
hPa
Rain
since 9 am
mm
Dir
 
Spd
km/h
Gust
km/h
Spd
kts
Gust
kts
28/03:30am 11.9 11.3 7.6 75 2.2 CALM 0 6 0 3 1013.5 - 0.0
28/03:00am 10.6 10.1 7.7 82 1.5 CALM 0 4 0 2 1013.7 1009.5 0.0
28/02:30am 11.5 10.3 8.2 80 1.7 W 4 7 2 4 1013.9 - 0.0
28/02:00am 10.9 11.1 10.7 99 0.1 CALM 0 2 0 1 1014.0 - 0.0
28/01:35am 10.5 9.9 10.3 99 0.1 W 4 6 2 3 1014.2 - 0.0
28/01:30am 10.7 10.2 10.7 100 0.0 WNW 4 6 2 3 1014.2 - 0.0
28/01:00am 11.2 11.6 11.2 100 0.0 CALM 0 6 0 3 1014.4 - 0.0
28/12:43am 11.2 10.4 11.0 99 0.1 NNW 6 7 3 4 1014.4 - 0.0
28/12:31am 11.9 11.4 11.9 100 0.0 NNW 6 7 3 4 1014.3 - 0.0
28/12:30am 11.9 11.4 11.9 100 0.0 NNW 6 7 3 4 1014.3 - 0.0
28/12:00am 11.6 11.0 11.6 100 0.0 N 6 7 3 4 1014.4 1010.2 0.0
 
Date/Time
EDT
Temp
°C
App
Temp
°C
Dew
Point
Rel
Hum
%
Delta-T
°C
Wind Press
QNH
hPa
Press
MSL
hPa
Rain
since 9 am
mm
Dir
 
Spd
km/h
Gust
km/h
Spd
kts
Gust
kts
27/11:30pm 11.9 12.1 11.9 100 0.0 NNW 2 6 1 3 1014.5 - 0.0
27/11:14pm 11.5 11.9 11.3 99 0.1 CALM 0 0 0 0 1014.7 - 0.0
27/11:00pm 11.6 11.3 11.4 99 0.1 NW 4 4 2 2 1014.6 - 0.0
27/10:38pm 12.0 11.8 11.8 99 0.1 NW 4 4 2 2 1014.5 - 0.0
27/10:30pm 11.8 11.5 11.6 99 0.1 WNW 4 6 2 3 1014.6 - 0.0
27/10:15pm 11.5 11.2 11.3 99 0.1 NW 4 4 2 2 1014.7 - 0.0
27/10:00pm 12.5 13.2 12.3 99 0.1 CALM 0 0 0 0 1014.7 - 0.0
27/09:30pm 12.3 12.6 12.1 99 0.1 WSW 2 6 1 3 1014.7 - 0.0
27/09:00pm 13.1 12.9 12.9 99 0.1 SSW 6 9 3 5 1014.5 1010.3 0.0
27/08:30pm 14.1 14.4 13.3 95 0.5 ENE 4 7 2 4 1013.6 - 0.0
27/08:00pm 14.6 14.9 13.3 92 0.8 SE 4 7 2 4 1013.6 - 0.0
27/07:30pm 15.2 14.3 13.6 90 1.0 SSW 11 15 6 8 1014.2 - 0.0
27/07:00pm 16.8 15.4 13.5 81 2.0 SE 13 17 7 9 1013.6 - 0.0
27/06:30pm 18.8 18.0 13.0 69 3.5 ESE 9 20 5 11 1013.1 - 0.0
27/06:00pm 20.0 16.8 6.7 42 7.2 W 13 20 7 11 1013.0 1008.8 0.0
27/05:30pm 20.8 17.9 6.7 40 7.6 W 11 19 6 10 1013.0 - 0.0
27/05:00pm 21.4 19.1 9.0 45 7.0 WNW 11 22 6 12 1013.0 - 0.0
27/04:30pm 21.2 17.5 6.3 38 8.0 WNW 15 22 8 12 1013.1 - 0.0
27/04:00pm 21.3 18.3 7.5 41 7.6 SW 13 20 7 11 1013.0 - 0.0
27/03:30pm 21.2 18.2 4.3 33 8.8 SW 9 17 5 9 1012.9 - 0.0
27/03:00pm 21.1 17.7 7.7 42 7.4 WSW 15 24 8 13 1013.2 1008.9 0.0
27/02:30pm 20.9 17.5 5.7 37 8.1 W 13 20 7 11 1013.5 - 0.0
27/02:00pm 21.4 17.9 7.3 40 7.7 SW 15 20 8 11 1013.6 - 0.0
27/01:30pm 20.5 16.4 7.8 44 7.0 NNW 19 28 10 15 1013.7 - 0.0
27/01:00pm 20.4 17.2 8.4 46 6.7 NW 15 24 8 13 1013.8 - 0.0
27/12:30pm 19.7 15.7 8.1 47 6.4 NW 19 28 10 15 1013.9 - 0.0
27/12:00pm 19.4 15.0 7.5 46 6.5 NNW 20 28 11 15 1014.2 1009.8 0.0
27/11:30am 19.3 15.9 9.2 52 5.7 WNW 17 26 9 14 1014.4 - 0.0
27/11:00am 18.6 15.5 8.8 53 5.4 WNW 15 24 8 13 1014.4 - 0.0
27/10:30am 18.0 14.3 8.0 52 5.5 WNW 17 28 9 15 1014.2 - 0.0
27/10:00am 17.2 14.3 8.1 55 5.0 WNW 13 20 7 11 1013.8 - 0.0
27/09:30am 16.0 14.2 9.4 65 3.7 N 9 15 5 8 1013.6 - 0.0
27/09:00am 14.6 13.2 9.4 71 2.9 NNW 7 19 4 10 1013.6 1009.4 0.0
27/08:30am 12.9 13.1 12.9 100 0.0 NNE 4 6 2 3 1013.2 - 0.0
27/08:21am 12.2 12.5 12.2 100 0.0 ESE 2 6 1 3 1013.4 - 0.0
27/08:00am 9.4 9.3 9.4 100 0.0 CALM 0 6 0 3 1013.2 - 0.0
27/07:30am 8.2 7.8 8.2 100 0.0 CALM 0 4 0 2 1013.0 - 0.0
27/07:00am 8.3 7.5 8.2 99 0.1 S 2 4 1 2 1012.8 - 0.0
27/06:30am 8.9 8.7 8.9 100 0.0 CALM 0 6 0 3 1012.6 - 0.0
27/06:00am 10.1 9.4 10.1 100 0.0 N 4 6 2 3 1012.7 1008.4 0.0
27/05:30am 11.2 10.3 11.2 100 0.0 N 7 11 4 6 1012.6 - 0.0
27/05:00am 11.3 10.4 11.3 100 0.0 NE 7 9 4 5 1012.8 - 0.0
27/04:30am 10.2 9.1 10.0 99 0.1 E 6 7 3 4 1013.1 - 0.0
27/04:00am 11.7 11.1 11.7 100 0.0 ENE 6 7 3 4 1013.2 - 0.0
27/03:30am 12.1 12.0 12.1 100 0.0 ENE 4 6 2 3 1013.5 - 0.0
27/03:00am 12.1 11.6 12.1 100 0.0 ENE 6 7 3 4 1013.6 1009.4 0.0
27/02:30am 12.1 12.8 12.1 100 0.0 CALM 0 4 0 2 1013.6 - 0.0
27/02:00am 12.1 11.6 12.1 100 0.0 E 6 7 3 4 1014.0 - 0.0
27/01:30am 12.1 11.4 11.9 99 0.1 E 7 11 4 6 1014.4 - 0.0
27/01:00am 12.3 11.6 12.1 99 0.1 E 7 11 4 6 1014.6 - 0.0
27/12:30am 12.5 11.9 12.3 99 0.1 ESE 7 9 4 5 1014.7 - 0.0
27/12:00am 12.6 12.0 12.4 99 0.1 E 7 9 4 5 1014.7 1010.4 0.0
 
Date/Time
EDT
Temp
°C
App
Temp
°C
Dew
Point
Rel
Hum
%
Delta-T
°C
Wind Press
QNH
hPa
Press
MSL
hPa
Rain
since 9 am
mm
Dir
 
Spd
km/h
Gust
km/h
Spd
kts
Gust
kts
26/11:47pm 12.6 12.2 12.4 99 0.1 ENE 6 9 3 5 1014.7 - 0.0
26/11:30pm 12.7 12.7 12.5 99 0.1 SSE 4 7 2 4 1014.7 - 0.0
26/11:29pm 12.7 12.7 12.5 99 0.1 SE 4 7 2 4 1014.7 - 0.0
26/11:05pm 12.8 12.3 12.6 99 0.1 E 7 9 4 5 1014.9 - 0.0
26/11:00pm 12.8 12.3 12.6 99 0.1 ESE 7 9 4 5 1014.9 - 0.0
26/10:30pm 12.9 13.0 12.7 99 0.1 SSE 4 6 2 3 1015.1 - 0.0
26/10:00pm 12.9 12.6 12.7 99 0.1 SSE 6 9 3 5 1014.8 - 0.0
26/09:34pm 13.0 12.5 12.8 99 0.1 SSE 7 11 4 6 1014.7 - 0.0
26/09:30pm 12.9 12.4 12.7 99 0.1 SSE 7 11 4 6 1014.7 - 0.0
26/09:16pm 13.0 11.8 12.7 98 0.2 S 11 15 6 8 1014.6 - 0.0
26/09:00pm 13.1 12.3 12.8 98 0.2 S 9 13 5 7 1014.5 1010.3 0.0
26/08:30pm 13.3 12.9 13.0 98 0.2 S 7 11 4 6 1014.0 - 0.0
26/08:00pm 13.6 12.8 13.0 96 0.4 S 9 13 5 7 1013.7 - 0.0
26/07:30pm 13.7 12.1 12.9 95 0.5 S 13 19 7 10 1013.4 - 0.0
26/07:00pm 14.5 13.0 13.2 92 0.8 S 13 20 7 11 1013.0 - 0.0
26/06:30pm 15.0 12.6 12.5 85 1.5 S 17 24 9 13 1012.7 - 0.0
26/06:00pm 16.5 14.3 13.4 82 1.9 S 17 26 9 14 1012.3 1008.1 0.0
26/05:30pm 18.8 17.0 12.1 65 4.0 SSW 13 22 7 12 1012.3 - 0.0
26/05:00pm 18.3 16.3 11.6 65 3.9 S 13 20 7 11 1012.3 - 0.0
26/04:30pm 19.8 17.9 11.8 60 4.7 S 13 20 7 11 1012.2 - 0.0
26/04:00pm 19.6 17.0 9.2 51 5.8 SSW 13 19 7 10 1012.2 - 0.0
26/03:30pm 18.4 15.5 9.5 56 5.0 SW 15 22 8 12 1012.6 - 0.0
26/03:00pm 19.8 17.8 10.2 54 5.5 SW 11 20 6 11 1012.7 1008.4 0.0
26/02:30pm 19.3 16.2 8.9 51 5.8 SW 15 24 8 13 1012.9 - 0.0
26/02:00pm 19.0 16.9 8.4 50 5.9 S 9 20 5 11 1013.0 - 0.0
26/01:30pm 18.9 17.6 9.1 53 5.5 SSE 6 15 3 8 1013.1 - 0.0
26/01:00pm 19.8 17.4 10.2 54 5.5 SSW 13 22 7 12 1013.4 - 0.0
26/12:30pm 18.3 16.3 8.6 53 5.4 W 9 15 5 8 1013.5 - 0.0
26/12:00pm 16.6 14.4 9.5 63 4.0 WNW 11 19 6 10 1013.7 1009.5 0.0
26/11:30am 16.3 14.8 10.6 69 3.2 WSW 9 17 5 9 1013.9 - 0.0
26/11:00am 16.6 13.4 11.3 71 3.1 W 19 22 10 12 1014.0 - 0.0
26/10:30am 15.3 15.0 12.8 85 1.5 SSE 6 9 3 5 1014.2 - 0.0
26/10:00am 14.5 14.2 12.7 89 1.1 S 6 9 3 5 1013.8 - 0.0
26/09:30am 14.8 14.3 12.7 87 1.2 NW 7 9 4 5 1013.7 - 0.0
26/09:00am 15.1 13.1 12.6 85 1.5 NNW 15 20 8 11 1013.5 1009.2 1.4
26/08:30am 13.4 13.0 12.3 93 0.6 N 6 7 3 4 1013.5 - 1.4
26/08:00am 13.1 12.7 12.3 95 0.5 NNW 6 7 3 4 1013.4 - 1.4
26/07:30am 12.2 11.4 11.7 97 0.3 WNW 7 9 4 5 1013.2 - 1.4
26/07:00am 11.3 10.7 10.4 94 0.5 WSW 4 7 2 4 1012.9 - 1.4
26/06:30am 12.8 11.5 11.2 90 0.9 N 9 13 5 7 1012.7 - 1.4
26/06:00am 12.7 11.5 11.6 93 0.6 NW 9 19 5 10 1012.6 1008.3 1.4
26/05:30am 12.9 12.3 11.8 93 0.6 NW 6 11 3 6 1012.7 - 1.4
26/05:00am 12.8 11.3 11.9 94 0.5 NW 11 15 6 8 1012.7 - 1.4
26/04:35am 12.9 11.7 12.7 99 0.1 NNW 11 17 6 9 1012.8 - 1.4
26/04:30am 12.9 11.3 12.7 99 0.1 NW 13 19 7 10 1012.8 - 1.4
26/04:25am 13.0 11.0 12.8 99 0.1 NW 15 19 8 10 1012.7 - 1.4
26/04:00am 12.0 10.9 11.8 99 0.1 WNW 9 15 5 8 1013.1 - 1.4
26/03:30am 11.6 10.4 11.6 100 0.0 W 9 13 5 7 1013.1 - 1.4
26/03:00am 11.9 10.8 11.9 100 0.0 WNW 9 15 5 8 1013.5 1009.2 1.4
26/02:30am 11.9 10.4 11.9 100 0.0 WNW 11 20 6 11 1013.7 - 1.4
26/02:27am 11.2 10.3 11.2 100 0.0 W 7 17 4 9 1013.8 - 1.4
26/02:00am 9.3 8.4 9.3 100 0.0 W 4 7 2 4 1014.0 - 1.4
26/01:30am 10.0 8.7 10.0 100 0.0 NNW 7 7 4 4 1014.3 - 1.4
26/01:00am 10.2 9.5 10.2 100 0.0 NNW 4 9 2 5 1014.5 - 1.4
26/12:30am 11.4 10.7 11.4 100 0.0 W 6 7 3 4 1014.8 - 1.4
26/12:00am 11.9 11.4 11.9 100 0.0 NW 6 7 3 4 1014.8 1010.6 1.4
 
Date/Time
EDT
Temp
°C
App
Temp
°C
Dew
Point
Rel
Hum
%
Delta-T
°C
Wind Press
QNH
hPa
Press
MSL
hPa
Rain
since 9 am
mm
Dir
 
Spd
km/h
Gust
km/h
Spd
kts
Gust
kts
25/11:30pm 11.8 11.2 11.8 100 0.0 NNW 6 7 3 4 1014.7 - 1.4
25/11:00pm 11.8 11.2 11.8 100 0.0 NW 6 6 3 3 1015.3 - 1.4
25/10:30pm 12.0 11.9 12.0 100 0.0 NW 4 6 2 3 1015.6 - 1.4
25/10:00pm 12.1 12.7 11.9 99 0.1 CALM 0 2 0 1 1015.7 - 1.4
25/09:41pm 11.7 12.2 11.5 99 0.1 CALM 0 0 0 0 1015.7 - 1.4
25/09:30pm 11.9 12.1 11.7 99 0.1 NE 2 4 1 2 1015.9 - 1.4
25/09:23pm 11.7 11.4 11.5 99 0.1 E 4 6 2 3 1015.9 - 1.4
25/09:01pm 12.1 12.7 11.9 99 0.1 CALM 0 0 0 0 1016.2 - 1.4
25/09:00pm 12.0 12.6 11.8 99 0.1 CALM 0 0 0 0 1016.2 1012.0 1.4
25/08:30pm 13.0 12.7 12.8 99 0.1 ESE 6 7 3 4 1015.9 - 1.4
25/08:00pm 13.4 12.7 13.2 99 0.1 ESE 9 11 5 6 1015.7 - 1.4
25/07:30pm 13.9 13.3 13.4 97 0.3 ESE 9 11 5 6 1015.9 - 1.4
25/07:00pm 14.6 13.9 13.3 92 0.8 ESE 9 11 5 6 1015.6 - 1.4
25/06:30pm 14.9 14.2 13.1 89 1.1 ESE 9 13 5 7 1016.0 - 1.4
25/06:00pm 15.4 14.8 13.6 89 1.1 ESE 9 13 5 7 1016.2 1012.0 1.4
25/05:30pm 14.9 13.7 12.9 88 1.2 ESE 11 17 6 9 1016.4 - 1.4
25/05:00pm 15.8 14.8 13.5 86 1.4 ESE 11 19 6 10 1016.3 - 1.4
25/04:30pm 15.8 14.6 12.9 83 1.7 E 11 15 6 8 1016.5 - 1.4
25/04:00pm 15.6 14.9 13.1 85 1.5 ESE 9 13 5 7 1016.9 - 1.4
25/03:30pm 15.6 14.7 13.8 89 1.1 ESE 11 15 6 8 1017.3 - 1.4
25/03:00pm 14.3 13.1 12.9 91 0.8 SE 11 17 6 9 1017.8 1013.7 1.4
25/02:30pm 14.8 13.4 13.5 92 0.8 SE 13 19 7 10 1018.0 - 1.4
25/02:00pm 14.5 12.8 12.5 88 1.2 E 13 19 7 10 1018.2 - 1.4
25/01:30pm 15.4 14.2 14.1 92 0.8 E 13 17 7 9 1018.5 - 1.4
25/01:00pm 14.5 12.9 12.9 90 0.9 ESE 13 17 7 9 1018.9 - 1.4
25/12:30pm 15.1 14.6 14.9 99 0.1 ESE 11 17 6 9 1019.4 - 1.4
25/12:00pm 13.5 13.3 13.5 100 0.0 ESE 7 11 4 6 1019.7 1015.6 1.4
25/11:30am 12.9 13.1 12.9 100 0.0 E 4 7 2 4 1019.8 - 1.4
25/11:00am 11.4 11.1 11.4 100 0.0 NNE 4 7 2 4 1019.8 - 1.4
25/10:42am 11.3 10.6 11.3 100 0.0 N 6 7 3 4 1019.8 - 1.4
25/10:30am 11.1 11.1 11.1 100 0.0 ENE 2 4 1 2 1019.8 - 1.4
25/10:00am 10.7 10.6 10.7 100 0.0 SE 2 7 1 4 1019.8 - 1.4
25/09:30am 9.8 8.7 9.8 100 0.0 SE 6 7 3 4 1019.9 - 1.4
25/09:00am 10.0 8.9 10.0 100 0.0 ESE 6 7 3 4 1019.8 1015.8 0.0
25/08:30am 9.7 8.5 9.7 100 0.0 SE 6 9 3 5 1019.7 - 0.0
25/08:00am 9.5 9.0 9.5 100 0.0 ESE 2 6 1 3 1019.6 - 0.0
25/07:30am 9.3 8.0 9.3 100 0.0 ESE 6 7 3 4 1019.4 - 0.0
25/07:00am 9.2 8.3 9.2 100 0.0 NE 4 6 2 3 1019.3 - 0.0
25/06:30am 9.3 8.0 9.3 100 0.0 E 6 7 3 4 1018.9 - 0.0
25/06:00am 9.3 8.0 9.3 100 0.0 E 6 9 3 5 1018.8 1014.7 0.0
25/05:30am 9.3 8.4 9.3 100 0.0 ENE 4 7 2 4 1018.7 - 0.0
25/05:00am 9.4 8.5 9.4 100 0.0 NE 4 7 2 4 1018.6 - 0.0
25/04:30am 9.4 8.2 9.4 100 0.0 N 6 7 3 4 1018.6 - 0.0
25/04:00am 9.5 8.3 9.5 100 0.0 N 6 9 3 5 1018.7 - 0.0

Other Formats:

Comma delimited format used in spreadsheet applications
http://www.bom.gov.au/fwo/IDV60801/IDV60801.94905.axf

JavaScript Object Notation format (JSON) in row-major order
http://www.bom.gov.au/fwo/IDV60801/IDV60801.94905.json